Stazioni METAR vicine

 

LIRQ - Firenze/Peretola, Italy
Distance from station: S 24km
Dati ricevuti: 17/01/2019 06:50
Light drizzle, Molto nuvoloso
Light drizzle, Molto nuvoloso
 Vento Da E-SE
Vento: E-SE 15 km/h
Temperatura: 9°C
Temperatura Vento: 7°C
P.to Rugiada: 8°C
Umidità: 94%
Barometro: 1016 hPa
Meteo: Light Drizzle
Clouds: Molto nuvoloso
Visibility: 10 km
Cloud details: Poco nuvoloso 762 m
Molto nuvoloso 1372 m
2019/01/17 05:50 LIRQ 170550Z 11008KT 9999 -DZ FEW025 BKN045 09/08 Q1016
LIVC - Cimone Mountain, Italy
Distance from station: O-NO 43km
Dati ricevuti: 17/01/2019 06:55
Freezing Fog
Freezing Fog
 Vento Da SO
Vento: SO 15 km/h, Raffica: 43 km/h
Temperatura: -3°C
Temperatura Vento: -8°C
P.to Rugiada: -5°C
Umidità: 86%
Barometro: 1010 hPa
Meteo: Freezing Fog
Visibility: 0 km
2019/01/17 05:55 LIVC 170555Z 23008G23KT 0000 FZFG VV/// M03/M05 Q1010
 
LIPE - Bologna/Borgo (a, Italy
Distance from station: N-NE 60km
Dati ricevuti: 17/01/2019 06:50
Poco nuvoloso
Poco nuvoloso
 Vento Da SO
Vento: SO 6 km/h
Temperatura: 3°C
P.to Rugiada: 1°C
Umidità: 87%
Barometro: 1015 hPa
Clouds: Poco nuvoloso
Visibility: 10 km
Cloud details: Poco nuvoloso 2134 m
2019/01/17 05:50 LIPE 170550Z 23003KT 170V300 9999 FEW070 03/01 Q1015
LIRP - Pisa (civ/It-Afb, Italy
Distance from station: O-SO 72km
Dati ricevuti: 17/01/2019 06:45
Molto nuvoloso
Molto nuvoloso
 Vento Da E
Vento: E 9 km/h
Temperatura: 8°C
Temperatura Vento: 6°C
P.to Rugiada: 8°C
Umidità: 100%
Barometro: 1016 hPa
Clouds: Molto nuvoloso
Visibility: 10 km
Cloud details: Molto nuvoloso 914 m
2019/01/17 05:45 LIRP 170545Z 10005KT 9999 BKN030 08/08 Q1016 NOSIG
 
LIPK - Forli (civ/It-Af, Italy
Distance from station: E-NE 78km
Dati ricevuti: 16/01/2019 17:50
NOT Current
Sereno
Sereno
 Vento Da varies
Vento: varies 6 km/h
Temperatura: 8°C
P.to Rugiada: -3°C
Umidità: 46%
Barometro: 1018 hPa
Meteo: Sereno
Visibility: greater than 10 km
2019/01/16 16:50 LIPK 161650Z VRB03KT CAVOK 08/M03 Q1018
LIQW - Sarzana/Luni, Italy
Distance from station: O 94km
Dati ricevuti: 16/01/2019 21:55
NOT Current
Poco nuvoloso
Poco nuvoloso
 Vento Da calma
Vento: Calma
Temperatura: 7°C
P.to Rugiada: 6°C
Umidità: 93%
Barometro: 1019 hPa
Clouds: Poco nuvoloso
Visibility: 10 km
Cloud details: Poco nuvoloso 762 m
2019/01/16 20:55 LIQW 162055Z 00000KT 9999 SCT025 07/06 Q1019
 
LIPC - Cervia (it-Afb), Italy
Distance from station: E-NE 96km
Dati ricevuti: 17/01/2019 06:55
Poco nuvoloso
Poco nuvoloso
 Vento Da S-SE
Vento: S-SE 19 km/h
Temperatura: 8°C
Temperatura Vento: 4°C
P.to Rugiada: 5°C
Umidità: 82%
Barometro: 1016 hPa
Clouds: Poco nuvoloso
Visibility: 10 km
Cloud details: Poco nuvoloso 1524 m
Poco nuvoloso 1829 m
2019/01/17 05:55 LIPC 170555Z 15010KT 9999 SCT050 SCT060 08/05 Q1016
LIPF - Ferrara (aut), Italy
Distance from station: N-NE 99km
Dati ricevuti: 17/01/2019 06:55
Molto nuvoloso
Molto nuvoloso
 Vento Da NE
Vento: NE 6 km/h
Temperatura: -1°C
P.to Rugiada: -2°C
Umidità: 93%
Barometro: 1015 hPa
Clouds: Molto nuvoloso
Visibility: 10 km
Cloud details: Molto nuvoloso 1219 m
2019/01/17 05:55 LIPF 170555Z 05003KT 9999 BKN040 M01/M02 Q1015